createdAt,value
2023-05-01T00:01:30.620Z,11.45
2023-05-01T00:03:57.255Z,9.25
2023-05-01T00:06:24.086Z,10.45
2023-05-01T00:08:50.724Z,11.82
2023-05-01T00:11:17.217Z,10.77
2023-05-01T00:13:43.701Z,11.20
2023-05-01T00:16:12.043Z,11.85
2023-05-01T00:18:39.314Z,13.35
2023-05-01T00:21:05.862Z,13.55
2023-05-01T00:23:32.344Z,13.40
2023-05-01T00:25:58.839Z,12.40
2023-05-01T00:28:25.428Z,12.88
2023-05-01T00:30:52.186Z,14.13
2023-05-01T00:33:18.967Z,12.20
2023-05-01T00:35:45.896Z,13.77
2023-05-01T00:38:12.958Z,11.82
2023-05-01T00:40:46.563Z,13.20
2023-05-01T00:43:13.589Z,10.40
2023-05-01T00:45:43.334Z,11.77
2023-05-01T00:48:10.204Z,11.13
2023-05-01T00:50:37.267Z,10.65
2023-05-01T00:53:04.215Z,9.27
2023-05-01T00:55:33.045Z,12.70
2023-05-01T00:58:01.105Z,13.43
2023-05-01T01:00:29.508Z,13.90
2023-05-01T01:02:56.306Z,11.52
2023-05-01T01:05:25.804Z,11.02
2023-05-01T01:07:59.073Z,9.35
2023-05-01T01:10:51.088Z,14.85
2023-05-01T01:13:32.456Z,14.05
2023-05-01T01:15:59.432Z,12.27
2023-05-01T01:18:40.152Z,16.20
2023-05-01T01:21:11.605Z,12.35
2023-05-01T01:23:47.054Z,11.65
2023-05-01T01:29:04.976Z,15.30
2023-05-01T01:31:47.284Z,12.43
2023-05-01T01:34:19.766Z,14.02
2023-05-01T01:37:30.308Z,11.80
2023-05-01T01:40:05.338Z,11.90
2023-05-01T01:42:40.334Z,13.35
2023-05-01T01:45:19.239Z,15.27
2023-05-01T01:47:48.259Z,13.02
2023-05-01T01:50:17.197Z,15.93
2023-05-01T01:52:47.546Z,11.75
2023-05-01T01:55:16.846Z,13.73
2023-05-01T01:57:46.812Z,10.27
2023-05-01T02:00:16.640Z,13.07
2023-05-01T02:02:44.815Z,14.80
2023-05-01T02:05:16.207Z,13.73
2023-05-01T02:07:45.973Z,12.05
2023-05-01T02:10:14.098Z,13.23
2023-05-01T02:12:46.909Z,15.75
2023-05-01T02:15:15.468Z,13.77
2023-05-01T02:17:42.188Z,10.65
2023-05-01T02:20:12.604Z,11.93
2023-05-01T02:22:43.713Z,14.88
2023-05-01T02:25:12.534Z,12.85
2023-05-01T02:27:45.105Z,15.02
2023-05-01T02:30:12.234Z,12.88
2023-05-01T02:32:38.869Z,15.38
2023-05-01T02:35:05.695Z,14.77
2023-05-01T02:37:32.305Z,13.10
2023-05-01T02:39:59.345Z,14.38
2023-05-01T02:42:28.181Z,12.73
2023-05-01T02:45:01.913Z,13.45
2023-05-01T02:47:32.262Z,13.68
2023-05-01T02:49:59.672Z,16.50
2023-05-01T02:52:26.557Z,11.98
2023-05-01T02:54:53.069Z,10.25
2023-05-01T02:57:20.429Z,16.00
2023-05-01T02:59:46.936Z,11.23
2023-05-01T03:02:13.401Z,14.32
2023-05-01T03:04:40.106Z,14.60
2023-05-01T03:07:06.655Z,13.13
2023-05-01T03:09:33.108Z,14.55
2023-05-01T03:12:00.025Z,12.90
2023-05-01T03:14:28.496Z,12.68
2023-05-01T03:16:55.904Z,19.48
2023-05-01T03:19:22.387Z,15.05
2023-05-01T03:21:48.862Z,12.40
2023-05-01T03:24:15.364Z,14.20
2023-05-01T03:26:41.948Z,15.63
2023-05-01T03:29:08.802Z,15.23
2023-05-01T03:31:35.687Z,14.18
2023-05-01T03:34:02.249Z,14.55
2023-05-01T03:36:28.812Z,11.82
2023-05-01T03:38:55.311Z,12.75
2023-05-01T03:41:21.770Z,12.40
2023-05-01T03:43:48.274Z,13.93
2023-05-01T03:46:14.796Z,17.13
2023-05-01T03:48:41.291Z,15.32
2023-05-01T03:51:07.798Z,12.48
2023-05-01T03:53:34.372Z,13.70
2023-05-01T03:56:00.822Z,15.55
2023-05-01T03:58:27.459Z,12.35
2023-05-01T04:00:56.959Z,14.18
2023-05-01T04:03:23.651Z,16.23
2023-05-01T04:05:50.186Z,14.75
2023-05-01T04:08:16.714Z,14.02
2023-05-01T04:10:43.221Z,17.92
2023-05-01T04:13:10.813Z,17.60
2023-05-01T04:15:37.389Z,16.10
2023-05-01T04:18:04.354Z,11.60
2023-05-01T04:20:31.385Z,16.95
2023-05-01T04:22:57.875Z,18.02
2023-05-01T04:25:24.328Z,13.25
2023-05-01T04:27:51.009Z,11.95
2023-05-01T04:30:17.583Z,13.35
2023-05-01T04:32:44.080Z,11.32
2023-05-01T04:35:12.220Z,15.23
2023-05-01T04:37:38.673Z,11.88
2023-05-01T04:40:05.720Z,11.50
2023-05-01T04:42:32.835Z,12.57
2023-05-01T04:45:04.125Z,14.70
2023-05-01T04:47:31.058Z,14.45
2023-05-01T04:49:58.094Z,14.32
2023-05-01T04:52:24.736Z,13.93
2023-05-01T04:54:51.169Z,14.00
2023-05-01T04:57:17.684Z,14.05
2023-05-01T04:59:44.204Z,14.07
2023-05-01T05:02:11.050Z,12.25
2023-05-01T05:04:37.774Z,17.77
2023-05-01T05:07:04.209Z,14.38
2023-05-01T05:09:30.662Z,12.80
2023-05-01T05:11:57.126Z,12.13
2023-05-01T05:14:23.560Z,13.13
2023-05-01T05:16:50.165Z,13.73
2023-05-01T05:19:16.956Z,14.77
2023-05-01T05:21:43.426Z,15.10
2023-05-01T05:24:09.978Z,18.27
2023-05-01T05:26:36.649Z,13.40
2023-05-01T05:29:03.120Z,15.57
2023-05-01T05:31:29.664Z,15.35
2023-05-01T05:33:56.166Z,17.08
2023-05-01T05:36:22.713Z,14.43
2023-05-01T05:38:49.190Z,13.90
2023-05-01T05:41:15.993Z,14.68
2023-05-01T05:43:42.433Z,17.15
2023-05-01T05:46:09.037Z,16.17
2023-05-01T05:48:35.720Z,14.27
2023-05-01T05:51:02.256Z,15.48
2023-05-01T05:53:28.834Z,16.10
2023-05-01T05:55:55.326Z,15.98
2023-05-01T05:58:23.262Z,15.05
2023-05-01T06:00:50.377Z,17.67
2023-05-01T06:03:17.058Z,17.33
2023-05-01T06:05:44.075Z,17.67
2023-05-01T06:08:11.078Z,17.13
2023-05-01T06:10:39.459Z,14.20
2023-05-01T06:13:13.459Z,16.65
2023-05-01T06:15:41.648Z,14.00
2023-05-01T06:18:08.658Z,14.43
2023-05-01T06:20:35.419Z,10.90
2023-05-01T06:23:01.929Z,15.32
2023-05-01T06:25:28.413Z,14.45
2023-05-01T06:27:54.880Z,15.82
2023-05-01T06:30:21.967Z,14.02
2023-05-01T06:32:49.206Z,14.38
2023-05-01T06:35:16.023Z,13.27
2023-05-01T06:37:42.581Z,16.02
2023-05-01T06:40:09.816Z,15.18
2023-05-01T06:42:37.700Z,16.50
2023-05-01T06:45:04.838Z,14.13
2023-05-01T06:47:31.324Z,13.35
2023-05-01T06:49:57.938Z,16.50
2023-05-01T06:52:25.172Z,13.82
2023-05-01T06:54:51.681Z,14.38
2023-05-01T06:57:18.168Z,15.75
2023-05-01T06:59:44.629Z,15.82
2023-05-01T07:02:11.468Z,15.90
2023-05-01T07:04:37.935Z,14.68
2023-05-01T07:07:04.404Z,13.60
2023-05-01T07:09:31.284Z,12.68
2023-05-01T07:11:58.572Z,13.23
2023-05-01T07:14:25.133Z,13.55
2023-05-01T07:16:51.693Z,13.85
2023-05-01T07:19:18.595Z,15.15
2023-05-01T07:21:45.071Z,14.88
2023-05-01T07:24:12.450Z,13.38
2023-05-01T07:26:39.012Z,12.93
2023-05-01T07:29:05.607Z,10.98
2023-05-01T07:31:32.100Z,13.25
2023-05-01T07:33:58.580Z,11.20
2023-05-01T07:36:25.178Z,15.82
2023-05-01T07:38:51.674Z,11.35
2023-05-01T07:41:18.145Z,16.52
2023-05-01T07:43:44.589Z,11.13
2023-05-01T07:46:11.705Z,12.23
2023-05-01T07:48:39.003Z,12.15
2023-05-01T07:51:05.818Z,9.93
2023-05-01T07:53:33.133Z,12.45
2023-05-01T07:56:09.962Z,10.23
2023-05-01T07:58:37.178Z,14.88
2023-05-01T08:01:04.063Z,13.27
2023-05-01T08:03:31.659Z,12.13
2023-05-01T08:05:58.865Z,13.60
2023-05-01T08:08:25.431Z,11.70
2023-05-01T08:10:52.645Z,8.85
2023-05-01T08:13:19.132Z,9.48
2023-05-01T08:15:47.486Z,6.07
2023-05-01T08:18:20.203Z,6.43
2023-05-01T08:20:48.240Z,9.18
2023-05-01T08:23:16.136Z,8.88
2023-05-01T08:25:42.678Z,4.60
2023-05-01T08:28:09.768Z,7.47
2023-05-01T08:30:36.559Z,7.95
2023-05-01T08:33:03.650Z,9.10
2023-05-01T08:35:30.256Z,7.38
2023-05-01T08:37:56.913Z,9.10
2023-05-01T08:40:24.106Z,8.88
2023-05-01T08:42:51.320Z,7.68
2023-05-01T08:45:19.004Z,9.68
2023-05-01T08:47:46.526Z,9.25
2023-05-01T08:50:14.011Z,6.97
2023-05-01T08:52:42.370Z,5.65
2023-05-01T08:55:20.811Z,8.70
2023-05-01T08:57:48.551Z,6.50
2023-05-01T09:00:21.926Z,9.48
2023-05-01T09:02:51.290Z,8.13
2023-05-01T09:05:19.203Z,9.70
2023-05-01T09:07:48.800Z,12.57
2023-05-01T09:10:18.223Z,10.02
2023-05-01T09:12:47.110Z,9.43
2023-05-01T09:15:14.084Z,10.77
2023-05-01T09:17:42.681Z,7.47
2023-05-01T09:20:10.556Z,7.53
2023-05-01T09:22:37.371Z,6.88
2023-05-01T09:25:04.363Z,8.05
2023-05-01T09:27:39.593Z,7.72
2023-05-01T09:32:34.280Z,8.00
2023-05-01T09:35:14.785Z,7.90
2023-05-01T09:37:41.688Z,11.27
2023-05-01T09:40:13.085Z,7.05
2023-05-01T09:42:53.786Z,7.35
2023-05-01T09:45:20.354Z,8.95
2023-05-01T09:47:47.422Z,7.15
2023-05-01T09:50:34.307Z,7.35
2023-05-01T09:53:01.510Z,8.38
2023-05-01T09:55:28.205Z,9.02
2023-05-01T09:57:54.722Z,0.73
2023-05-01T10:00:22.221Z,6.90
2023-05-01T10:02:49.879Z,0.98
2023-05-01T10:05:17.553Z,13.13
2023-05-01T10:08:05.846Z,9.70
2023-05-01T10:10:32.305Z,8.63
2023-05-01T10:13:14.514Z,6.88
2023-05-01T10:15:41.101Z,5.85
2023-05-01T10:18:11.169Z,7.10
2023-05-01T10:20:37.737Z,7.72
2023-05-01T10:23:04.228Z,5.03
2023-05-01T10:25:31.778Z,6.50
2023-05-01T10:27:59.314Z,5.55
2023-05-01T10:30:30.206Z,5.63
2023-05-01T10:32:58.966Z,3.13
2023-05-01T10:35:30.161Z,2.08
2023-05-01T10:37:56.599Z,3.90
2023-05-01T10:40:48.758Z,6.03
2023-05-01T10:43:27.843Z,4.78
2023-05-01T10:46:21.348Z,7.82
2023-05-01T10:48:57.185Z,10.07
2023-05-01T10:51:27.848Z,7.57
2023-05-01T10:54:12.867Z,3.70
2023-05-01T10:56:39.244Z,2.70
2023-05-01T10:59:06.009Z,6.40
2023-05-01T11:01:43.017Z,4.85
2023-05-01T11:04:22.047Z,3.92
2023-05-01T11:07:11.231Z,4.65
2023-05-01T11:09:55.167Z,6.53
2023-05-01T11:12:46.858Z,8.50
2023-05-01T11:15:25.930Z,7.30
2023-05-01T11:17:52.678Z,6.30
2023-05-01T11:20:25.262Z,4.47
2023-05-01T11:22:53.244Z,5.05
2023-05-01T11:25:20.708Z,6.38
2023-05-01T11:27:52.964Z,6.00
2023-05-01T11:30:19.750Z,2.97
2023-05-01T11:32:47.994Z,3.63
2023-05-01T11:35:22.918Z,3.35
2023-05-01T11:37:55.909Z,4.22
2023-05-01T11:40:33.184Z,6.35
2023-05-01T11:43:02.162Z,5.88
2023-05-01T11:45:29.552Z,3.10
2023-05-01T11:47:56.273Z,2.75
2023-05-01T11:50:31.732Z,4.47
2023-05-01T11:52:58.217Z,4.80
2023-05-01T11:55:31.848Z,2.97
2023-05-01T11:57:58.685Z,3.00
2023-05-01T12:00:33.655Z,5.22
2023-05-01T12:03:06.540Z,3.90
2023-05-01T12:05:37.770Z,3.83
2023-05-01T12:08:15.354Z,4.57
2023-05-01T12:10:43.359Z,4.95
2023-05-01T12:13:12.303Z,5.38
2023-05-01T12:15:42.526Z,2.42
2023-05-01T12:18:09.693Z,4.40
2023-05-01T12:20:40.345Z,4.10
2023-05-01T12:23:08.441Z,3.38
2023-05-01T12:25:35.681Z,9.10
2023-05-01T12:28:16.871Z,5.28
2023-05-01T12:30:45.176Z,4.45
2023-05-01T12:33:20.159Z,7.00
2023-05-01T12:38:16.106Z,4.28
2023-05-01T12:40:56.733Z,4.50
2023-05-01T12:43:34.541Z,4.00
2023-05-01T12:46:02.112Z,6.20
2023-05-01T12:48:29.817Z,4.07
2023-05-01T12:50:57.029Z,4.65
2023-05-01T12:53:25.834Z,4.43
2023-05-01T12:55:54.449Z,2.85
2023-05-01T12:58:21.678Z,5.72
2023-05-01T13:00:57.464Z,6.65
2023-05-01T13:03:26.356Z,3.30
2023-05-01T13:05:56.773Z,0.98
2023-05-01T13:08:31.392Z,3.20
2023-05-01T13:11:00.080Z,4.07
2023-05-01T13:13:28.612Z,7.10
2023-05-01T13:16:04.547Z,6.75
2023-05-01T13:18:34.724Z,13.20
2023-05-01T13:21:09.184Z,3.60
2023-05-01T13:23:38.126Z,4.65
2023-05-01T13:26:07.204Z,4.15
2023-05-01T13:28:47.633Z,5.75
2023-05-01T13:31:15.054Z,10.75
2023-05-01T13:33:43.159Z,3.13
2023-05-01T13:36:24.292Z,7.82
2023-05-01T13:38:54.390Z,6.60
2023-05-01T13:41:22.345Z,8.73
2023-05-01T13:43:49.904Z,4.57
2023-05-01T13:46:18.616Z,3.85
2023-05-01T13:48:46.657Z,4.10
2023-05-01T13:51:14.633Z,2.88
2023-05-01T13:53:42.012Z,3.28
2023-05-01T13:56:09.897Z,8.05
2023-05-01T13:58:36.918Z,2.00
2023-05-01T14:01:06.301Z,5.32
2023-05-01T14:03:40.442Z,6.80
2023-05-01T14:06:14.584Z,10.70
2023-05-01T14:08:41.663Z,4.83
2023-05-01T14:11:09.876Z,7.03
2023-05-01T14:13:36.514Z,4.75
2023-05-01T14:16:10.390Z,10.23
2023-05-01T14:18:44.701Z,5.65
2023-05-01T14:21:12.646Z,7.40
2023-05-01T14:23:42.027Z,5.15
2023-05-01T14:26:09.532Z,5.20
2023-05-01T14:28:42.572Z,4.85
2023-05-01T14:31:09.065Z,4.25
2023-05-01T14:33:43.476Z,5.13
2023-05-01T14:36:11.786Z,4.38
2023-05-01T14:38:40.264Z,3.70
2023-05-01T14:41:08.359Z,5.13
2023-05-01T14:43:41.515Z,6.28
2023-05-01T14:46:08.213Z,5.07
2023-05-01T14:48:37.123Z,5.53
2023-05-01T14:51:10.770Z,8.55
2023-05-01T14:53:40.094Z,4.35
2023-05-01T14:56:06.734Z,4.22
2023-05-01T14:58:33.184Z,4.97
2023-05-01T15:01:00.300Z,4.30
2023-05-01T15:03:27.216Z,6.95
2023-05-01T15:05:54.319Z,6.30
2023-05-01T15:08:21.445Z,6.47
2023-05-01T15:10:48.095Z,5.60
2023-05-01T15:13:14.545Z,7.65
2023-05-01T15:15:41.049Z,11.35
2023-05-01T15:18:07.717Z,7.82
2023-05-01T15:20:34.235Z,4.18
2023-05-01T15:23:00.796Z,3.70
2023-05-01T15:25:27.390Z,6.10
2023-05-01T15:27:53.880Z,6.50
2023-05-01T15:30:20.455Z,7.13
2023-05-01T15:32:47.302Z,6.47
2023-05-01T15:35:13.976Z,11.95
2023-05-01T15:37:40.512Z,2.40
2023-05-01T15:40:07.993Z,4.07
2023-05-01T15:42:34.436Z,7.65
2023-05-01T15:45:02.986Z,4.22
2023-05-01T15:47:29.514Z,2.17
2023-05-01T15:49:56.067Z,3.65
2023-05-01T15:52:22.582Z,7.22
2023-05-01T15:54:49.056Z,4.65
2023-05-01T15:57:18.202Z,4.13
2023-05-01T15:59:44.936Z,3.45
2023-05-01T16:02:11.890Z,2.65
2023-05-01T16:04:39.057Z,9.75
2023-05-01T16:07:06.252Z,7.30
2023-05-01T16:09:32.902Z,4.15
2023-05-01T16:12:01.509Z,6.43
2023-05-01T16:14:28.052Z,4.18
2023-05-01T16:16:54.699Z,6.63
2023-05-01T16:19:21.339Z,3.15
2023-05-01T16:21:47.928Z,9.48
2023-05-01T16:24:14.799Z,11.98
2023-05-01T16:26:41.738Z,6.55
2023-05-01T16:29:08.344Z,7.13
2023-05-01T16:31:38.902Z,3.20
2023-05-01T16:34:07.064Z,6.20
2023-05-01T16:36:37.815Z,3.33
2023-05-01T16:39:04.679Z,3.60
2023-05-01T16:41:31.202Z,5.30
2023-05-01T16:44:00.507Z,6.82
2023-05-01T16:46:27.052Z,7.25
2023-05-01T16:48:53.567Z,10.65
2023-05-01T16:51:20.179Z,3.55
2023-05-01T16:53:46.656Z,5.78
2023-05-01T16:56:13.179Z,5.18
2023-05-01T16:58:39.622Z,4.95
2023-05-01T17:01:06.210Z,6.68
2023-05-01T17:03:32.710Z,7.07
2023-05-01T17:05:59.554Z,6.82
2023-05-01T17:08:26.155Z,5.03
2023-05-01T17:10:52.689Z,5.72
2023-05-01T17:13:19.523Z,4.70
2023-05-01T17:15:45.959Z,3.65
2023-05-01T17:18:12.678Z,3.90
2023-05-01T17:20:39.234Z,3.60
2023-05-01T17:23:05.723Z,3.10
2023-05-01T17:25:32.848Z,6.05
2023-05-01T17:27:59.327Z,5.00
2023-05-01T17:30:25.830Z,3.92
2023-05-01T17:32:53.109Z,5.55
2023-05-01T17:35:19.658Z,5.70
2023-05-01T17:37:46.150Z,3.85
2023-05-01T17:40:12.835Z,4.72
2023-05-01T17:42:39.614Z,4.65
2023-05-01T17:45:07.546Z,5.75
2023-05-01T17:47:34.599Z,5.10
2023-05-01T17:50:04.714Z,7.00
2023-05-01T17:52:31.336Z,4.63
2023-05-01T17:54:58.309Z,5.25
2023-05-01T17:57:24.841Z,4.78
2023-05-01T17:59:51.314Z,7.38
2023-05-01T18:02:18.051Z,3.70
2023-05-01T18:04:45.910Z,5.78
2023-05-01T18:07:12.554Z,5.03
2023-05-01T18:09:39.027Z,5.38
2023-05-01T18:12:05.703Z,4.55
2023-05-01T18:14:32.223Z,6.07
2023-05-01T18:17:00.307Z,5.10
2023-05-01T18:19:26.848Z,5.82
2023-05-01T18:21:53.290Z,5.13
2023-05-01T18:24:19.816Z,8.77
2023-05-01T18:26:46.408Z,11.65
2023-05-01T18:29:13.510Z,4.47
2023-05-01T18:31:40.029Z,5.50
2023-05-01T18:34:07.177Z,6.80
2023-05-01T18:36:33.679Z,7.10
2023-05-01T18:39:01.856Z,7.47
2023-05-01T18:41:28.310Z,7.63
2023-05-01T18:43:57.660Z,7.43
2023-05-01T18:46:24.656Z,7.68
2023-05-01T18:48:51.231Z,9.35
2023-05-01T18:51:17.725Z,6.57
2023-05-01T18:53:44.507Z,7.50
2023-05-01T18:56:11.105Z,9.38
2023-05-01T18:58:37.611Z,10.65
2023-05-01T19:01:04.047Z,9.95
2023-05-01T19:03:30.524Z,6.03
2023-05-01T19:05:57.046Z,6.45
2023-05-01T19:08:23.582Z,8.57
2023-05-01T19:10:50.228Z,9.25
2023-05-01T19:13:16.757Z,7.65
2023-05-01T19:15:43.647Z,8.13
2023-05-01T19:18:10.586Z,10.50
2023-05-01T19:20:37.229Z,12.05
2023-05-01T19:23:03.710Z,8.15
2023-05-01T19:25:32.331Z,7.13
2023-05-01T19:27:59.967Z,6.45
2023-05-01T19:30:26.464Z,6.15
2023-05-01T19:32:53.089Z,6.70
2023-05-01T19:35:19.689Z,10.35
2023-05-01T19:37:46.873Z,7.57
2023-05-01T19:40:15.876Z,8.48
2023-05-01T19:42:42.531Z,8.65
2023-05-01T19:45:09.341Z,8.63
2023-05-01T19:47:35.925Z,6.22
2023-05-01T19:50:02.654Z,7.97
2023-05-01T19:52:30.323Z,7.93
2023-05-01T19:54:56.799Z,9.63
2023-05-01T19:57:23.979Z,13.80
2023-05-01T19:59:52.633Z,11.63
2023-05-01T20:02:19.269Z,11.40
2023-05-01T20:04:46.562Z,12.38
2023-05-01T20:07:13.101Z,13.07
2023-05-01T20:09:39.570Z,12.63
2023-05-01T20:12:06.055Z,12.65
2023-05-01T20:14:34.157Z,10.93
2023-05-01T20:17:00.967Z,11.88
2023-05-01T20:19:27.818Z,13.13
2023-05-01T20:21:54.530Z,11.20
2023-05-01T20:24:22.290Z,12.40
2023-05-01T20:26:50.199Z,10.43
2023-05-01T20:29:16.694Z,9.77
2023-05-01T20:31:43.308Z,13.80
2023-05-01T20:34:09.855Z,11.45
2023-05-01T20:36:36.318Z,10.18
2023-05-01T20:39:02.901Z,9.65
2023-05-01T20:41:29.552Z,10.52
2023-05-01T20:43:55.985Z,12.73
2023-05-01T20:46:23.043Z,10.68
2023-05-01T20:48:49.623Z,8.68
2023-05-01T20:51:16.297Z,11.60
2023-05-01T20:53:42.766Z,11.85
2023-05-01T20:56:09.338Z,11.82
2023-05-01T20:58:36.291Z,11.45
2023-05-01T21:01:02.966Z,10.30
2023-05-01T21:03:29.639Z,12.85
2023-05-01T21:05:59.898Z,12.77
2023-05-01T21:08:30.135Z,15.65
2023-05-01T21:10:56.983Z,12.45
2023-05-01T21:13:26.632Z,16.02
2023-05-01T21:15:53.184Z,13.90
2023-05-01T21:18:20.443Z,16.92
2023-05-01T21:20:48.599Z,17.42
2023-05-01T21:23:16.896Z,13.82
2023-05-01T21:25:44.314Z,14.95
2023-05-01T21:28:12.603Z,15.27
2023-05-01T21:30:39.580Z,15.45
2023-05-01T21:33:11.598Z,16.13
2023-05-01T21:35:41.811Z,16.13
2023-05-01T21:38:09.399Z,17.88
2023-05-01T21:40:42.744Z,20.55
2023-05-01T21:43:09.437Z,19.17
2023-05-01T21:45:40.244Z,17.25
2023-05-01T21:48:14.437Z,19.33
2023-05-01T21:50:41.101Z,20.65
2023-05-01T21:53:07.914Z,21.17
2023-05-01T21:55:34.617Z,22.90
2023-05-01T21:58:02.230Z,21.17
2023-05-01T22:00:29.836Z,22.45
2023-05-01T22:02:56.525Z,20.38
2023-05-01T22:05:23.326Z,21.73
2023-05-01T22:07:52.038Z,20.20
2023-05-01T22:10:20.085Z,20.10
2023-05-01T22:12:48.872Z,22.92
2023-05-01T22:15:16.469Z,22.42
2023-05-01T22:17:43.888Z,20.73
2023-05-01T22:20:11.250Z,23.45
2023-05-01T22:22:39.676Z,26.75
2023-05-01T22:25:07.117Z,20.17
2023-05-01T22:27:34.432Z,22.40
2023-05-01T22:30:01.550Z,21.92
2023-05-01T22:32:28.415Z,26.08
2023-05-01T22:34:55.338Z,24.15
2023-05-01T22:37:21.909Z,26.48
2023-05-01T22:39:48.367Z,27.40
2023-05-01T22:42:14.857Z,27.05
2023-05-01T22:44:41.509Z,30.73
2023-05-01T22:47:08.170Z,27.63
2023-05-01T22:49:34.649Z,32.22
2023-05-01T22:52:02.133Z,32.63
2023-05-01T22:54:28.617Z,31.15
2023-05-01T22:56:55.074Z,30.00
2023-05-01T22:59:21.966Z,33.92
2023-05-01T23:01:48.695Z,31.40
2023-05-01T23:04:15.640Z,29.33
2023-05-01T23:06:43.200Z,28.85
2023-05-01T23:09:09.905Z,32.20
2023-05-01T23:11:36.424Z,30.45
2023-05-01T23:14:02.890Z,30.98
2023-05-01T23:16:36.591Z,31.90
2023-05-01T23:19:03.534Z,32.20
2023-05-01T23:21:30.929Z,32.22
2023-05-01T23:23:57.544Z,32.35
2023-05-01T23:26:25.944Z,34.65
2023-05-01T23:28:53.137Z,33.67
2023-05-01T23:31:27.128Z,34.35
2023-05-01T23:33:54.914Z,32.03
2023-05-01T23:36:21.696Z,31.77
2023-05-01T23:38:48.247Z,33.83
2023-05-01T23:41:15.261Z,32.80
2023-05-01T23:43:42.411Z,34.80
2023-05-01T23:46:09.186Z,34.38
2023-05-01T23:48:36.235Z,33.80
2023-05-01T23:51:03.184Z,32.00
2023-05-01T23:53:30.157Z,34.55
2023-05-01T23:55:56.855Z,31.80
2023-05-01T23:58:24.531Z,32.28
